sensor_id;sensor_type;location;lat;lon;timestamp;P1;durP1;ratioP1;P2;durP2;ratioP2
56043;SDS011;41912;51.022;3.664;2023-05-10T00:01:50;14.82;;;7.82;;
56043;SDS011;41912;51.022;3.664;2023-05-10T00:04:17;20.08;;;9.43;;
56043;SDS011;41912;51.022;3.664;2023-05-10T00:06:42;18.85;;;8.68;;
56043;SDS011;41912;51.022;3.664;2023-05-10T00:09:08;20.90;;;8.55;;
56043;SDS011;41912;51.022;3.664;2023-05-10T00:11:33;21.80;;;9.77;;
56043;SDS011;41912;51.022;3.664;2023-05-10T00:13:59;19.65;;;9.10;;
56043;SDS011;41912;51.022;3.664;2023-05-10T00:16:24;19.05;;;9.30;;
56043;SDS011;41912;51.022;3.664;2023-05-10T00:18:50;19.13;;;10.23;;
56043;SDS011;41912;51.022;3.664;2023-05-10T00:21:16;23.63;;;9.70;;
56043;SDS011;41912;51.022;3.664;2023-05-10T00:23:41;21.67;;;11.10;;
56043;SDS011;41912;51.022;3.664;2023-05-10T00:26:07;20.50;;;10.50;;
56043;SDS011;41912;51.022;3.664;2023-05-10T00:28:32;21.33;;;10.35;;
56043;SDS011;41912;51.022;3.664;2023-05-10T00:30:58;20.98;;;10.80;;
56043;SDS011;41912;51.022;3.664;2023-05-10T00:33:24;21.08;;;10.93;;
56043;SDS011;41912;51.022;3.664;2023-05-10T00:35:49;22.35;;;12.32;;
56043;SDS011;41912;51.022;3.664;2023-05-10T00:38:15;25.98;;;13.27;;
56043;SDS011;41912;51.022;3.664;2023-05-10T00:40:41;28.27;;;12.57;;
56043;SDS011;41912;51.022;3.664;2023-05-10T00:43:06;19.92;;;12.32;;
56043;SDS011;41912;51.022;3.664;2023-05-10T00:45:32;26.33;;;14.55;;
56043;SDS011;41912;51.022;3.664;2023-05-10T00:48:01;20.98;;;12.30;;
56043;SDS011;41912;51.022;3.664;2023-05-10T00:50:28;22.00;;;13.23;;
56043;SDS011;41912;51.022;3.664;2023-05-10T00:52:55;21.83;;;13.70;;
56043;SDS011;41912;51.022;3.664;2023-05-10T00:55:22;24.55;;;13.32;;
56043;SDS011;41912;51.022;3.664;2023-05-10T00:57:48;27.10;;;14.60;;
56043;SDS011;41912;51.022;3.664;2023-05-10T01:00:14;22.92;;;13.88;;
56043;SDS011;41912;51.022;3.664;2023-05-10T01:02:46;28.10;;;17.55;;
56043;SDS011;41912;51.022;3.664;2023-05-10T01:05:12;30.60;;;18.27;;
56043;SDS011;41912;51.022;3.664;2023-05-10T01:07:39;35.25;;;21.25;;
56043;SDS011;41912;51.022;3.664;2023-05-10T01:10:05;34.35;;;19.88;;
56043;SDS011;41912;51.022;3.664;2023-05-10T01:12:32;34.05;;;19.58;;
56043;SDS011;41912;51.022;3.664;2023-05-10T01:15:03;34.22;;;19.73;;
56043;SDS011;41912;51.022;3.664;2023-05-10T01:17:30;33.50;;;19.70;;
56043;SDS011;41912;51.022;3.664;2023-05-10T01:19:57;35.78;;;20.05;;
56043;SDS011;41912;51.022;3.664;2023-05-10T01:25:37;36.87;;;20.83;;
56043;SDS011;41912;51.022;3.664;2023-05-10T01:31:13;31.15;;;20.00;;
56043;SDS011;41912;51.022;3.664;2023-05-10T01:34:02;30.45;;;20.17;;
56043;SDS011;41912;51.022;3.664;2023-05-10T01:36:35;31.50;;;19.65;;
56043;SDS011;41912;51.022;3.664;2023-05-10T01:39:11;32.50;;;20.48;;
56043;SDS011;41912;51.022;3.664;2023-05-10T01:41:51;32.30;;;19.75;;
56043;SDS011;41912;51.022;3.664;2023-05-10T01:44:29;37.75;;;19.85;;
56043;SDS011;41912;51.022;3.664;2023-05-10T01:47:09;27.25;;;17.98;;
56043;SDS011;41912;51.022;3.664;2023-05-10T01:49:39;32.95;;;18.23;;
56043;SDS011;41912;51.022;3.664;2023-05-10T01:52:09;33.03;;;18.58;;
56043;SDS011;41912;51.022;3.664;2023-05-10T01:54:41;33.75;;;20.10;;
56043;SDS011;41912;51.022;3.664;2023-05-10T01:57:10;33.97;;;18.08;;
56043;SDS011;41912;51.022;3.664;2023-05-10T01:59:40;30.80;;;17.58;;
56043;SDS011;41912;51.022;3.664;2023-05-10T02:02:08;32.40;;;17.92;;
56043;SDS011;41912;51.022;3.664;2023-05-10T02:04:37;30.25;;;17.45;;
56043;SDS011;41912;51.022;3.664;2023-05-10T02:07:04;30.63;;;16.27;;
56043;SDS011;41912;51.022;3.664;2023-05-10T02:09:32;30.08;;;17.45;;
56043;SDS011;41912;51.022;3.664;2023-05-10T02:11:59;26.40;;;16.13;;
56043;SDS011;41912;51.022;3.664;2023-05-10T02:14:27;32.92;;;17.48;;
56043;SDS011;41912;51.022;3.664;2023-05-10T02:16:57;31.02;;;16.48;;
56043;SDS011;41912;51.022;3.664;2023-05-10T02:19:24;31.38;;;16.58;;
56043;SDS011;41912;51.022;3.664;2023-05-10T02:21:52;28.70;;;16.40;;
56043;SDS011;41912;51.022;3.664;2023-05-10T02:24:20;27.92;;;15.82;;
56043;SDS011;41912;51.022;3.664;2023-05-10T02:26:47;37.95;;;16.30;;
56043;SDS011;41912;51.022;3.664;2023-05-10T02:29:14;28.27;;;14.63;;
56043;SDS011;41912;51.022;3.664;2023-05-10T02:31:41;27.40;;;15.45;;
56043;SDS011;41912;51.022;3.664;2023-05-10T02:34:08;30.70;;;15.13;;
56043;SDS011;41912;51.022;3.664;2023-05-10T02:36:36;27.23;;;15.07;;
56043;SDS011;41912;51.022;3.664;2023-05-10T02:39:03;28.90;;;14.27;;
56043;SDS011;41912;51.022;3.664;2023-05-10T02:41:34;24.35;;;14.70;;
56043;SDS011;41912;51.022;3.664;2023-05-10T02:44:02;27.35;;;14.07;;
56043;SDS011;41912;51.022;3.664;2023-05-10T02:46:30;29.10;;;14.93;;
56043;SDS011;41912;51.022;3.664;2023-05-10T02:48:56;24.17;;;14.10;;
56043;SDS011;41912;51.022;3.664;2023-05-10T02:51:23;29.92;;;14.63;;
56043;SDS011;41912;51.022;3.664;2023-05-10T02:53:52;23.33;;;13.52;;
56043;SDS011;41912;51.022;3.664;2023-05-10T02:56:23;25.30;;;13.63;;
56043;SDS011;41912;51.022;3.664;2023-05-10T02:58:56;25.80;;;14.63;;
56043;SDS011;41912;51.022;3.664;2023-05-10T03:01:22;26.30;;;14.48;;
56043;SDS011;41912;51.022;3.664;2023-05-10T03:03:48;25.75;;;14.27;;
56043;SDS011;41912;51.022;3.664;2023-05-10T03:06:14;23.23;;;13.57;;
56043;SDS011;41912;51.022;3.664;2023-05-10T03:08:41;26.70;;;13.65;;
56043;SDS011;41912;51.022;3.664;2023-05-10T03:14:10;27.95;;;14.82;;
56043;SDS011;41912;51.022;3.664;2023-05-10T03:16:46;21.73;;;14.30;;
56043;SDS011;41912;51.022;3.664;2023-05-10T03:19:30;24.92;;;14.55;;
56043;SDS011;41912;51.022;3.664;2023-05-10T03:24:33;24.42;;;14.48;;
56043;SDS011;41912;51.022;3.664;2023-05-10T03:27:00;25.02;;;15.20;;
56043;SDS011;41912;51.022;3.664;2023-05-10T03:29:29;28.15;;;14.90;;
56043;SDS011;41912;51.022;3.664;2023-05-10T03:31:57;26.67;;;14.30;;
56043;SDS011;41912;51.022;3.664;2023-05-10T03:34:24;31.15;;;17.08;;
56043;SDS011;41912;51.022;3.664;2023-05-10T03:36:50;26.25;;;15.27;;
56043;SDS011;41912;51.022;3.664;2023-05-10T03:39:16;28.52;;;15.55;;
56043;SDS011;41912;51.022;3.664;2023-05-10T03:41:42;23.05;;;14.02;;
56043;SDS011;41912;51.022;3.664;2023-05-10T03:44:08;26.73;;;15.32;;
56043;SDS011;41912;51.022;3.664;2023-05-10T03:46:33;25.45;;;15.10;;
56043;SDS011;41912;51.022;3.664;2023-05-10T03:48:59;26.77;;;15.85;;
56043;SDS011;41912;51.022;3.664;2023-05-10T03:51:25;31.50;;;15.50;;
56043;SDS011;41912;51.022;3.664;2023-05-10T03:53:53;28.98;;;15.32;;
56043;SDS011;41912;51.022;3.664;2023-05-10T03:56:21;30.02;;;16.02;;
56043;SDS011;41912;51.022;3.664;2023-05-10T03:58:47;23.65;;;14.68;;
56043;SDS011;41912;51.022;3.664;2023-05-10T04:01:13;26.58;;;15.10;;
56043;SDS011;41912;51.022;3.664;2023-05-10T04:03:38;28.15;;;15.57;;
56043;SDS011;41912;51.022;3.664;2023-05-10T04:06:04;30.33;;;16.88;;
56043;SDS011;41912;51.022;3.664;2023-05-10T04:08:30;29.05;;;15.70;;
56043;SDS011;41912;51.022;3.664;2023-05-10T04:11:09;31.23;;;15.95;;
56043;SDS011;41912;51.022;3.664;2023-05-10T04:13:37;25.58;;;14.90;;
56043;SDS011;41912;51.022;3.664;2023-05-10T04:16:03;31.65;;;17.17;;
56043;SDS011;41912;51.022;3.664;2023-05-10T04:18:30;30.98;;;16.83;;
56043;SDS011;41912;51.022;3.664;2023-05-10T04:20:56;27.20;;;15.73;;
56043;SDS011;41912;51.022;3.664;2023-05-10T04:23:22;29.52;;;14.95;;
56043;SDS011;41912;51.022;3.664;2023-05-10T04:25:48;29.38;;;15.88;;
56043;SDS011;41912;51.022;3.664;2023-05-10T04:28:13;30.13;;;16.60;;
56043;SDS011;41912;51.022;3.664;2023-05-10T04:30:39;30.25;;;16.67;;
56043;SDS011;41912;51.022;3.664;2023-05-10T04:33:05;34.13;;;17.38;;
56043;SDS011;41912;51.022;3.664;2023-05-10T04:35:31;36.30;;;19.35;;
56043;SDS011;41912;51.022;3.664;2023-05-10T04:37:56;35.45;;;18.52;;
56043;SDS011;41912;51.022;3.664;2023-05-10T04:40:22;32.15;;;17.90;;
56043;SDS011;41912;51.022;3.664;2023-05-10T04:42:47;35.05;;;18.90;;
56043;SDS011;41912;51.022;3.664;2023-05-10T04:45:13;38.70;;;19.48;;
56043;SDS011;41912;51.022;3.664;2023-05-10T04:47:42;35.20;;;19.20;;
56043;SDS011;41912;51.022;3.664;2023-05-10T04:50:07;35.20;;;19.73;;
56043;SDS011;41912;51.022;3.664;2023-05-10T04:52:33;38.67;;;19.55;;
56043;SDS011;41912;51.022;3.664;2023-05-10T04:54:59;39.05;;;21.08;;
56043;SDS011;41912;51.022;3.664;2023-05-10T04:57:24;32.90;;;19.02;;
56043;SDS011;41912;51.022;3.664;2023-05-10T04:59:50;46.53;;;22.30;;
56043;SDS011;41912;51.022;3.664;2023-05-10T05:02:17;37.05;;;20.70;;
56043;SDS011;41912;51.022;3.664;2023-05-10T05:04:42;40.28;;;20.48;;
56043;SDS011;41912;51.022;3.664;2023-05-10T05:07:08;37.28;;;20.58;;
56043;SDS011;41912;51.022;3.664;2023-05-10T05:09:33;36.53;;;21.77;;
56043;SDS011;41912;51.022;3.664;2023-05-10T05:11:59;41.25;;;20.83;;
56043;SDS011;41912;51.022;3.664;2023-05-10T05:14:25;40.70;;;23.63;;
56043;SDS011;41912;51.022;3.664;2023-05-10T05:16:51;45.65;;;22.35;;
56043;SDS011;41912;51.022;3.664;2023-05-10T05:19:17;37.92;;;22.52;;
56043;SDS011;41912;51.022;3.664;2023-05-10T05:21:42;40.40;;;22.52;;
56043;SDS011;41912;51.022;3.664;2023-05-10T05:24:08;40.08;;;23.15;;
56043;SDS011;41912;51.022;3.664;2023-05-10T05:26:35;45.92;;;22.48;;
56043;SDS011;41912;51.022;3.664;2023-05-10T05:29:01;44.38;;;23.23;;
56043;SDS011;41912;51.022;3.664;2023-05-10T05:31:27;48.17;;;23.40;;
56043;SDS011;41912;51.022;3.664;2023-05-10T05:33:53;41.15;;;23.98;;
56043;SDS011;41912;51.022;3.664;2023-05-10T05:36:19;46.67;;;25.38;;
56043;SDS011;41912;51.022;3.664;2023-05-10T05:38:45;38.17;;;23.58;;
56043;SDS011;41912;51.022;3.664;2023-05-10T05:41:10;48.17;;;23.52;;
56043;SDS011;41912;51.022;3.664;2023-05-10T05:43:36;45.83;;;24.60;;
56043;SDS011;41912;51.022;3.664;2023-05-10T05:46:01;45.85;;;23.25;;
56043;SDS011;41912;51.022;3.664;2023-05-10T05:48:27;43.47;;;23.63;;
56043;SDS011;41912;51.022;3.664;2023-05-10T05:50:55;40.72;;;22.23;;
56043;SDS011;41912;51.022;3.664;2023-05-10T05:53:21;45.60;;;24.67;;
56043;SDS011;41912;51.022;3.664;2023-05-10T05:55:51;45.38;;;23.48;;
56043;SDS011;41912;51.022;3.664;2023-05-10T05:58:19;45.30;;;24.63;;
56043;SDS011;41912;51.022;3.664;2023-05-10T06:00:44;43.63;;;24.15;;
56043;SDS011;41912;51.022;3.664;2023-05-10T06:03:10;46.35;;;26.15;;
56043;SDS011;41912;51.022;3.664;2023-05-10T06:05:35;46.20;;;25.10;;
56043;SDS011;41912;51.022;3.664;2023-05-10T06:08:01;49.58;;;26.33;;
56043;SDS011;41912;51.022;3.664;2023-05-10T06:10:27;55.10;;;26.83;;
56043;SDS011;41912;51.022;3.664;2023-05-10T06:12:52;50.00;;;26.02;;
56043;SDS011;41912;51.022;3.664;2023-05-10T06:15:18;45.78;;;25.77;;
56043;SDS011;41912;51.022;3.664;2023-05-10T06:17:43;51.08;;;27.80;;
56043;SDS011;41912;51.022;3.664;2023-05-10T06:20:09;51.90;;;27.33;;
56043;SDS011;41912;51.022;3.664;2023-05-10T06:22:35;52.17;;;27.90;;
56043;SDS011;41912;51.022;3.664;2023-05-10T06:25:01;58.78;;;29.60;;
56043;SDS011;41912;51.022;3.664;2023-05-10T06:27:27;56.35;;;29.20;;
56043;SDS011;41912;51.022;3.664;2023-05-10T06:29:53;66.07;;;30.80;;
56043;SDS011;41912;51.022;3.664;2023-05-10T06:32:19;54.30;;;26.73;;
56043;SDS011;41912;51.022;3.664;2023-05-10T06:34:44;55.80;;;28.33;;
56043;SDS011;41912;51.022;3.664;2023-05-10T06:37:11;53.78;;;28.75;;
56043;SDS011;41912;51.022;3.664;2023-05-10T06:39:36;56.20;;;28.80;;
56043;SDS011;41912;51.022;3.664;2023-05-10T06:42:02;56.90;;;29.48;;
56043;SDS011;41912;51.022;3.664;2023-05-10T06:44:31;56.08;;;28.38;;
56043;SDS011;41912;51.022;3.664;2023-05-10T06:46:56;60.95;;;30.42;;
56043;SDS011;41912;51.022;3.664;2023-05-10T06:49:22;56.67;;;29.48;;
56043;SDS011;41912;51.022;3.664;2023-05-10T06:51:47;54.60;;;29.83;;
56043;SDS011;41912;51.022;3.664;2023-05-10T06:54:14;52.80;;;26.95;;
56043;SDS011;41912;51.022;3.664;2023-05-10T06:56:39;57.47;;;27.80;;
56043;SDS011;41912;51.022;3.664;2023-05-10T06:59:05;54.63;;;28.63;;
56043;SDS011;41912;51.022;3.664;2023-05-10T07:01:31;54.40;;;28.42;;
56043;SDS011;41912;51.022;3.664;2023-05-10T07:03:57;46.38;;;25.98;;
56043;SDS011;41912;51.022;3.664;2023-05-10T07:06:22;51.70;;;27.17;;
56043;SDS011;41912;51.022;3.664;2023-05-10T07:08:48;55.60;;;26.65;;
56043;SDS011;41912;51.022;3.664;2023-05-10T07:11:13;53.13;;;26.63;;
56043;SDS011;41912;51.022;3.664;2023-05-10T07:13:39;50.70;;;26.08;;
56043;SDS011;41912;51.022;3.664;2023-05-10T07:16:08;52.72;;;25.75;;
56043;SDS011;41912;51.022;3.664;2023-05-10T07:18:34;51.60;;;24.63;;
56043;SDS011;41912;51.022;3.664;2023-05-10T07:21:00;49.10;;;25.95;;
56043;SDS011;41912;51.022;3.664;2023-05-10T07:23:26;49.22;;;25.52;;
56043;SDS011;41912;51.022;3.664;2023-05-10T07:25:52;48.85;;;24.45;;
56043;SDS011;41912;51.022;3.664;2023-05-10T07:28:18;49.28;;;24.15;;
56043;SDS011;41912;51.022;3.664;2023-05-10T07:30:44;48.90;;;23.70;;
56043;SDS011;41912;51.022;3.664;2023-05-10T07:33:12;41.58;;;22.75;;
56043;SDS011;41912;51.022;3.664;2023-05-10T07:35:39;46.30;;;22.80;;
56043;SDS011;41912;51.022;3.664;2023-05-10T07:38:04;36.40;;;22.50;;
56043;SDS011;41912;51.022;3.664;2023-05-10T07:40:30;41.47;;;22.95;;
56043;SDS011;41912;51.022;3.664;2023-05-10T07:42:56;41.17;;;21.65;;
56043;SDS011;41912;51.022;3.664;2023-05-10T07:45:22;36.97;;;20.73;;
56043;SDS011;41912;51.022;3.664;2023-05-10T07:47:48;42.30;;;22.98;;
56043;SDS011;41912;51.022;3.664;2023-05-10T07:50:14;40.92;;;21.85;;
56043;SDS011;41912;51.022;3.664;2023-05-10T07:52:40;49.30;;;24.83;;
56043;SDS011;41912;51.022;3.664;2023-05-10T07:55:06;45.60;;;23.85;;
56043;SDS011;41912;51.022;3.664;2023-05-10T07:57:35;47.40;;;24.77;;
56043;SDS011;41912;51.022;3.664;2023-05-10T08:00:01;40.05;;;22.88;;
56043;SDS011;41912;51.022;3.664;2023-05-10T08:02:27;41.30;;;22.70;;
56043;SDS011;41912;51.022;3.664;2023-05-10T08:04:53;44.90;;;24.40;;
56043;SDS011;41912;51.022;3.664;2023-05-10T08:07:19;44.65;;;24.15;;
56043;SDS011;41912;51.022;3.664;2023-05-10T08:09:44;46.00;;;23.38;;
56043;SDS011;41912;51.022;3.664;2023-05-10T08:12:11;45.35;;;22.80;;
56043;SDS011;41912;51.022;3.664;2023-05-10T08:14:36;47.90;;;23.00;;
56043;SDS011;41912;51.022;3.664;2023-05-10T08:17:02;41.55;;;22.70;;
56043;SDS011;41912;51.022;3.664;2023-05-10T08:19:28;49.80;;;22.73;;
56043;SDS011;41912;51.022;3.664;2023-05-10T08:21:54;37.20;;;20.17;;
56043;SDS011;41912;51.022;3.664;2023-05-10T08:24:20;34.40;;;18.80;;
56043;SDS011;41912;51.022;3.664;2023-05-10T08:26:47;41.42;;;20.95;;
56043;SDS011;41912;51.022;3.664;2023-05-10T08:29:13;41.05;;;20.90;;
56043;SDS011;41912;51.022;3.664;2023-05-10T08:31:38;38.78;;;20.80;;
56043;SDS011;41912;51.022;3.664;2023-05-10T08:34:04;44.38;;;20.77;;
56043;SDS011;41912;51.022;3.664;2023-05-10T08:36:30;40.10;;;18.83;;
56043;SDS011;41912;51.022;3.664;2023-05-10T08:38:57;41.03;;;19.58;;
56043;SDS011;41912;51.022;3.664;2023-05-10T08:41:23;32.50;;;17.83;;
56043;SDS011;41912;51.022;3.664;2023-05-10T08:43:51;36.13;;;17.13;;
56043;SDS011;41912;51.022;3.664;2023-05-10T08:46:18;39.90;;;17.52;;
56043;SDS011;41912;51.022;3.664;2023-05-10T08:48:45;32.30;;;17.02;;
56043;SDS011;41912;51.022;3.664;2023-05-10T08:51:19;34.58;;;17.42;;
56043;SDS011;41912;51.022;3.664;2023-05-10T08:53:51;34.50;;;16.92;;
56043;SDS011;41912;51.022;3.664;2023-05-10T08:56:17;37.50;;;17.45;;
56043;SDS011;41912;51.022;3.664;2023-05-10T08:58:43;31.58;;;17.58;;
56043;SDS011;41912;51.022;3.664;2023-05-10T09:01:09;33.80;;;16.70;;
56043;SDS011;41912;51.022;3.664;2023-05-10T09:03:37;30.20;;;16.77;;
56043;SDS011;41912;51.022;3.664;2023-05-10T09:06:03;31.15;;;16.67;;
56043;SDS011;41912;51.022;3.664;2023-05-10T09:08:30;41.13;;;18.70;;
56043;SDS011;41912;51.022;3.664;2023-05-10T09:10:56;28.58;;;16.27;;
56043;SDS011;41912;51.022;3.664;2023-05-10T09:13:22;29.17;;;17.38;;
56043;SDS011;41912;51.022;3.664;2023-05-10T09:15:49;31.17;;;16.77;;
56043;SDS011;41912;51.022;3.664;2023-05-10T09:18:15;32.00;;;15.90;;
56043;SDS011;41912;51.022;3.664;2023-05-10T09:20:41;31.10;;;16.27;;
56043;SDS011;41912;51.022;3.664;2023-05-10T09:23:07;33.58;;;17.58;;
56043;SDS011;41912;51.022;3.664;2023-05-10T09:25:33;32.53;;;17.15;;
56043;SDS011;41912;51.022;3.664;2023-05-10T09:28:00;36.13;;;18.05;;
56043;SDS011;41912;51.022;3.664;2023-05-10T09:30:26;34.13;;;18.50;;
56043;SDS011;41912;51.022;3.664;2023-05-10T09:32:53;27.17;;;15.75;;
56043;SDS011;41912;51.022;3.664;2023-05-10T09:35:23;28.08;;;16.17;;
56043;SDS011;41912;51.022;3.664;2023-05-10T09:37:51;30.20;;;15.75;;
56043;SDS011;41912;51.022;3.664;2023-05-10T09:40:20;29.05;;;15.60;;
56043;SDS011;41912;51.022;3.664;2023-05-10T09:42:50;29.73;;;16.63;;
56043;SDS011;41912;51.022;3.664;2023-05-10T09:45:23;27.98;;;16.30;;
56043;SDS011;41912;51.022;3.664;2023-05-10T09:47:51;28.35;;;14.57;;
56043;SDS011;41912;51.022;3.664;2023-05-10T09:50:18;38.38;;;15.00;;
56043;SDS011;41912;51.022;3.664;2023-05-10T09:52:49;26.95;;;14.15;;
56043;SDS011;41912;51.022;3.664;2023-05-10T09:55:16;23.73;;;12.85;;
56043;SDS011;41912;51.022;3.664;2023-05-10T09:57:43;31.00;;;14.52;;
56043;SDS011;41912;51.022;3.664;2023-05-10T10:00:09;27.83;;;14.00;;
56043;SDS011;41912;51.022;3.664;2023-05-10T10:02:35;27.58;;;14.68;;
56043;SDS011;41912;51.022;3.664;2023-05-10T10:05:01;34.63;;;14.35;;
56043;SDS011;41912;51.022;3.664;2023-05-10T10:07:30;24.58;;;12.80;;
56043;SDS011;41912;51.022;3.664;2023-05-10T10:09:56;33.22;;;14.48;;
56043;SDS011;41912;51.022;3.664;2023-05-10T10:12:23;28.85;;;13.93;;
56043;SDS011;41912;51.022;3.664;2023-05-10T10:14:48;24.70;;;13.80;;
56043;SDS011;41912;51.022;3.664;2023-05-10T10:17:16;27.30;;;13.90;;
56043;SDS011;41912;51.022;3.664;2023-05-10T10:19:42;25.33;;;13.68;;
56043;SDS011;41912;51.022;3.664;2023-05-10T10:22:08;28.88;;;13.10;;
56043;SDS011;41912;51.022;3.664;2023-05-10T10:24:37;25.90;;;13.50;;
56043;SDS011;41912;51.022;3.664;2023-05-10T10:27:10;25.05;;;13.98;;
56043;SDS011;41912;51.022;3.664;2023-05-10T10:30:11;20.65;;;12.35;;
56043;SDS011;41912;51.022;3.664;2023-05-10T10:33:10;24.80;;;11.95;;
56043;SDS011;41912;51.022;3.664;2023-05-10T10:35:54;25.02;;;11.80;;
56043;SDS011;41912;51.022;3.664;2023-05-10T10:38:22;25.00;;;13.20;;
56043;SDS011;41912;51.022;3.664;2023-05-10T10:40:48;26.15;;;13.43;;
56043;SDS011;41912;51.022;3.664;2023-05-10T10:43:27;23.27;;;12.35;;
56043;SDS011;41912;51.022;3.664;2023-05-10T10:46:09;24.38;;;13.98;;
56043;SDS011;41912;51.022;3.664;2023-05-10T10:48:36;26.58;;;13.90;;
56043;SDS011;41912;51.022;3.664;2023-05-10T10:51:02;25.08;;;13.55;;
56043;SDS011;41912;51.022;3.664;2023-05-10T10:53:28;24.65;;;14.15;;
56043;SDS011;41912;51.022;3.664;2023-05-10T10:56:06;24.02;;;13.38;;
56043;SDS011;41912;51.022;3.664;2023-05-10T10:58:34;26.00;;;13.45;;
56043;SDS011;41912;51.022;3.664;2023-05-10T11:01:10;24.92;;;14.70;;
56043;SDS011;41912;51.022;3.664;2023-05-10T11:03:37;24.15;;;14.30;;
56043;SDS011;41912;51.022;3.664;2023-05-10T11:06:03;23.33;;;13.57;;
56043;SDS011;41912;51.022;3.664;2023-05-10T11:08:32;28.92;;;16.35;;
56043;SDS011;41912;51.022;3.664;2023-05-10T11:18:38;24.33;;;16.55;;
56043;SDS011;41912;51.022;3.664;2023-05-10T11:21:04;31.55;;;17.02;;
56043;SDS011;41912;51.022;3.664;2023-05-10T11:23:52;27.88;;;16.63;;
56043;SDS011;41912;51.022;3.664;2023-05-10T11:26:27;26.83;;;17.02;;
56043;SDS011;41912;51.022;3.664;2023-05-10T11:28:56;31.98;;;18.23;;
56043;SDS011;41912;51.022;3.664;2023-05-10T11:31:24;31.02;;;19.02;;
56043;SDS011;41912;51.022;3.664;2023-05-10T11:33:54;34.13;;;19.48;;
56043;SDS011;41912;51.022;3.664;2023-05-10T11:36:28;33.55;;;18.98;;
56043;SDS011;41912;51.022;3.664;2023-05-10T11:38:57;31.40;;;19.63;;
56043;SDS011;41912;51.022;3.664;2023-05-10T11:41:24;32.47;;;18.85;;
56043;SDS011;41912;51.022;3.664;2023-05-10T11:43:50;33.78;;;19.00;;
56043;SDS011;41912;51.022;3.664;2023-05-10T11:46:18;32.83;;;20.42;;
56043;SDS011;41912;51.022;3.664;2023-05-10T11:48:45;27.95;;;19.45;;
56043;SDS011;41912;51.022;3.664;2023-05-10T11:51:19;29.75;;;19.67;;
56043;SDS011;41912;51.022;3.664;2023-05-10T11:53:49;33.42;;;19.08;;
56043;SDS011;41912;51.022;3.664;2023-05-10T11:56:17;32.33;;;18.58;;
56043;SDS011;41912;51.022;3.664;2023-05-10T11:58:43;30.98;;;18.20;;
56043;SDS011;41912;51.022;3.664;2023-05-10T12:01:08;29.58;;;17.90;;
56043;SDS011;41912;51.022;3.664;2023-05-10T12:03:35;32.17;;;17.52;;
56043;SDS011;41912;51.022;3.664;2023-05-10T12:06:02;28.42;;;17.38;;
56043;SDS011;41912;51.022;3.664;2023-05-10T12:08:29;29.50;;;17.52;;
56043;SDS011;41912;51.022;3.664;2023-05-10T12:11:05;28.88;;;17.63;;
56043;SDS011;41912;51.022;3.664;2023-05-10T12:13:37;27.38;;;16.73;;
56043;SDS011;41912;51.022;3.664;2023-05-10T12:16:13;26.02;;;16.17;;
56043;SDS011;41912;51.022;3.664;2023-05-10T12:18:40;25.27;;;16.77;;
56043;SDS011;41912;51.022;3.664;2023-05-10T12:21:06;26.88;;;17.35;;
56043;SDS011;41912;51.022;3.664;2023-05-10T12:23:32;23.70;;;16.27;;
56043;SDS011;41912;51.022;3.664;2023-05-10T12:26:03;27.38;;;16.67;;
56043;SDS011;41912;51.022;3.664;2023-05-10T12:28:30;33.35;;;16.50;;
56043;SDS011;41912;51.022;3.664;2023-05-10T12:30:57;25.25;;;16.15;;
56043;SDS011;41912;51.022;3.664;2023-05-10T12:33:24;22.55;;;15.85;;
56043;SDS011;41912;51.022;3.664;2023-05-10T12:35:51;27.13;;;16.58;;
56043;SDS011;41912;51.022;3.664;2023-05-10T12:38:27;30.88;;;17.40;;
56043;SDS011;41912;51.022;3.664;2023-05-10T12:41:05;33.33;;;15.73;;
56043;SDS011;41912;51.022;3.664;2023-05-10T12:43:32;31.77;;;18.55;;
56043;SDS011;41912;51.022;3.664;2023-05-10T12:46:09;33.42;;;17.65;;
56043;SDS011;41912;51.022;3.664;2023-05-10T12:48:39;28.42;;;16.02;;
56043;SDS011;41912;51.022;3.664;2023-05-10T12:51:06;31.98;;;17.48;;
56043;SDS011;41912;51.022;3.664;2023-05-10T12:53:38;30.50;;;16.77;;
56043;SDS011;41912;51.022;3.664;2023-05-10T12:56:04;33.45;;;19.05;;
56043;SDS011;41912;51.022;3.664;2023-05-10T12:58:30;35.15;;;19.00;;
56043;SDS011;41912;51.022;3.664;2023-05-10T13:00:56;34.92;;;19.48;;
56043;SDS011;41912;51.022;3.664;2023-05-10T13:03:22;29.65;;;17.92;;
56043;SDS011;41912;51.022;3.664;2023-05-10T13:05:48;28.70;;;17.80;;
56043;SDS011;41912;51.022;3.664;2023-05-10T13:08:14;33.78;;;19.10;;
56043;SDS011;41912;51.022;3.664;2023-05-10T13:10:40;27.50;;;17.05;;
56043;SDS011;41912;51.022;3.664;2023-05-10T13:13:05;29.33;;;17.42;;
56043;SDS011;41912;51.022;3.664;2023-05-10T13:15:32;26.65;;;16.55;;
56043;SDS011;41912;51.022;3.664;2023-05-10T13:17:58;25.98;;;16.85;;
56043;SDS011;41912;51.022;3.664;2023-05-10T13:20:24;32.15;;;15.88;;
56043;SDS011;41912;51.022;3.664;2023-05-10T13:22:50;31.17;;;17.55;;
56043;SDS011;41912;51.022;3.664;2023-05-10T13:25:16;24.25;;;16.25;;
56043;SDS011;41912;51.022;3.664;2023-05-10T13:27:41;23.80;;;16.20;;
56043;SDS011;41912;51.022;3.664;2023-05-10T13:30:08;28.75;;;17.17;;
56043;SDS011;41912;51.022;3.664;2023-05-10T13:32:34;32.25;;;16.85;;
56043;SDS011;41912;51.022;3.664;2023-05-10T13:35:01;29.50;;;18.05;;
56043;SDS011;41912;51.022;3.664;2023-05-10T13:37:29;29.35;;;17.08;;
56043;SDS011;41912;51.022;3.664;2023-05-10T13:39:55;31.40;;;16.85;;
56043;SDS011;41912;51.022;3.664;2023-05-10T13:42:21;25.23;;;15.57;;
56043;SDS011;41912;51.022;3.664;2023-05-10T13:44:48;30.63;;;15.75;;
56043;SDS011;41912;51.022;3.664;2023-05-10T13:47:14;25.65;;;14.80;;
56043;SDS011;41912;51.022;3.664;2023-05-10T13:49:39;31.20;;;16.27;;
56043;SDS011;41912;51.022;3.664;2023-05-10T13:52:05;32.67;;;15.75;;
56043;SDS011;41912;51.022;3.664;2023-05-10T13:54:34;27.38;;;14.90;;
56043;SDS011;41912;51.022;3.664;2023-05-10T13:57:03;25.95;;;13.00;;
56043;SDS011;41912;51.022;3.664;2023-05-10T13:59:29;18.10;;;10.30;;
56043;SDS011;41912;51.022;3.664;2023-05-10T14:01:56;17.20;;;8.10;;
56043;SDS011;41912;51.022;3.664;2023-05-10T14:04:23;21.85;;;7.22;;
56043;SDS011;41912;51.022;3.664;2023-05-10T14:06:48;17.10;;;7.22;;
56043;SDS011;41912;51.022;3.664;2023-05-10T14:09:14;20.17;;;7.07;;
56043;SDS011;41912;51.022;3.664;2023-05-10T14:11:40;13.07;;;6.35;;
56043;SDS011;41912;51.022;3.664;2023-05-10T14:14:08;17.90;;;6.10;;
56043;SDS011;41912;51.022;3.664;2023-05-10T14:16:34;18.08;;;6.28;;
56043;SDS011;41912;51.022;3.664;2023-05-10T14:19:00;15.90;;;6.57;;
56043;SDS011;41912;51.022;3.664;2023-05-10T14:21:26;13.82;;;4.63;;
56043;SDS011;41912;51.022;3.664;2023-05-10T14:23:54;16.70;;;5.50;;
56043;SDS011;41912;51.022;3.664;2023-05-10T14:26:20;14.18;;;5.22;;
56043;SDS011;41912;51.022;3.664;2023-05-10T14:28:46;14.98;;;4.95;;
56043;SDS011;41912;51.022;3.664;2023-05-10T14:31:12;16.88;;;5.18;;
56043;SDS011;41912;51.022;3.664;2023-05-10T14:33:37;15.02;;;5.07;;
56043;SDS011;41912;51.022;3.664;2023-05-10T14:36:03;15.38;;;5.28;;
56043;SDS011;41912;51.022;3.664;2023-05-10T14:38:29;18.48;;;5.70;;
56043;SDS011;41912;51.022;3.664;2023-05-10T14:40:54;13.77;;;4.78;;
56043;SDS011;41912;51.022;3.664;2023-05-10T14:43:20;14.77;;;4.55;;
56043;SDS011;41912;51.022;3.664;2023-05-10T14:45:46;12.38;;;5.03;;